sensor_id;sensor_type;location;lat;lon;timestamp;temperature;humidity
13328;DHT22;6733;51.044;3.746;2022-11-20T00:01:11;6.60;99.90
13328;DHT22;6733;51.044;3.746;2022-11-20T00:03:38;6.60;99.90
13328;DHT22;6733;51.044;3.746;2022-11-20T00:06:06;6.60;99.90
13328;DHT22;6733;51.044;3.746;2022-11-20T00:08:33;6.60;99.90
13328;DHT22;6733;51.044;3.746;2022-11-20T00:11:07;6.60;99.90
13328;DHT22;6733;51.044;3.746;2022-11-20T00:13:33;6.60;99.90
13328;DHT22;6733;51.044;3.746;2022-11-20T00:16:01;6.60;99.90
13328;DHT22;6733;51.044;3.746;2022-11-20T00:18:28;6.60;99.90
13328;DHT22;6733;51.044;3.746;2022-11-20T00:21:01;6.50;99.90
13328;DHT22;6733;51.044;3.746;2022-11-20T00:23:27;6.50;99.90
13328;DHT22;6733;51.044;3.746;2022-11-20T00:25:53;6.60;99.90
13328;DHT22;6733;51.044;3.746;2022-11-20T00:28:19;6.60;99.90
13328;DHT22;6733;51.044;3.746;2022-11-20T00:30:45;6.50;99.90
13328;DHT22;6733;51.044;3.746;2022-11-20T00:33:11;6.50;99.90
13328;DHT22;6733;51.044;3.746;2022-11-20T00:35:38;6.60;99.90
13328;DHT22;6733;51.044;3.746;2022-11-20T00:38:04;6.60;99.90
13328;DHT22;6733;51.044;3.746;2022-11-20T00:40:30;6.60;99.90
13328;DHT22;6733;51.044;3.746;2022-11-20T00:42:56;6.60;99.90
13328;DHT22;6733;51.044;3.746;2022-11-20T00:45:22;6.60;99.90
13328;DHT22;6733;51.044;3.746;2022-11-20T00:47:48;6.60;99.90
13328;DHT22;6733;51.044;3.746;2022-11-20T00:50:14;6.60;99.90
13328;DHT22;6733;51.044;3.746;2022-11-20T00:52:41;6.60;99.90
13328;DHT22;6733;51.044;3.746;2022-11-20T00:55:07;6.60;99.90
13328;DHT22;6733;51.044;3.746;2022-11-20T00:57:33;6.60;99.90
13328;DHT22;6733;51.044;3.746;2022-11-20T00:59:59;6.60;99.90
13328;DHT22;6733;51.044;3.746;2022-11-20T01:02:25;6.60;99.90
13328;DHT22;6733;51.044;3.746;2022-11-20T01:04:51;6.70;99.90
13328;DHT22;6733;51.044;3.746;2022-11-20T01:07:17;6.60;99.90
13328;DHT22;6733;51.044;3.746;2022-11-20T01:09:43;6.60;99.90
13328;DHT22;6733;51.044;3.746;2022-11-20T01:12:10;6.60;99.90
13328;DHT22;6733;51.044;3.746;2022-11-20T01:14:36;6.60;99.90
13328;DHT22;6733;51.044;3.746;2022-11-20T01:17:02;6.60;99.90
13328;DHT22;6733;51.044;3.746;2022-11-20T01:19:28;6.60;99.90
13328;DHT22;6733;51.044;3.746;2022-11-20T01:21:54;6.60;99.90
13328;DHT22;6733;51.044;3.746;2022-11-20T01:24:21;6.60;99.90
13328;DHT22;6733;51.044;3.746;2022-11-20T01:26:49;6.60;99.90
13328;DHT22;6733;51.044;3.746;2022-11-20T01:29:22;6.60;99.90
13328;DHT22;6733;51.044;3.746;2022-11-20T01:31:48;6.60;99.90
13328;DHT22;6733;51.044;3.746;2022-11-20T01:34:17;6.60;99.90
13328;DHT22;6733;51.044;3.746;2022-11-20T01:36:43;6.60;99.90
13328;DHT22;6733;51.044;3.746;2022-11-20T01:39:18;6.70;99.90
13328;DHT22;6733;51.044;3.746;2022-11-20T01:41:45;6.60;99.90
13328;DHT22;6733;51.044;3.746;2022-11-20T01:44:50;6.60;99.90
13328;DHT22;6733;51.044;3.746;2022-11-20T01:47:21;6.60;99.90
13328;DHT22;6733;51.044;3.746;2022-11-20T01:49:54;6.60;99.90
13328;DHT22;6733;51.044;3.746;2022-11-20T01:52:32;6.60;99.90
13328;DHT22;6733;51.044;3.746;2022-11-20T01:55:05;6.70;99.90
13328;DHT22;6733;51.044;3.746;2022-11-20T01:57:33;6.70;99.90
13328;DHT22;6733;51.044;3.746;2022-11-20T02:00:12;6.70;99.90
13328;DHT22;6733;51.044;3.746;2022-11-20T02:02:41;6.80;99.90
13328;DHT22;6733;51.044;3.746;2022-11-20T02:05:22;6.70;99.90
13328;DHT22;6733;51.044;3.746;2022-11-20T02:07:49;6.70;99.90
13328;DHT22;6733;51.044;3.746;2022-11-20T02:10:16;6.70;99.90
13328;DHT22;6733;51.044;3.746;2022-11-20T02:12:42;6.70;99.90
13328;DHT22;6733;51.044;3.746;2022-11-20T02:15:27;6.70;99.90
13328;DHT22;6733;51.044;3.746;2022-11-20T02:17:54;6.60;99.90
13328;DHT22;6733;51.044;3.746;2022-11-20T02:20:20;6.60;99.90
13328;DHT22;6733;51.044;3.746;2022-11-20T02:23:12;6.60;99.90
13328;DHT22;6733;51.044;3.746;2022-11-20T02:25:39;6.60;99.90
13328;DHT22;6733;51.044;3.746;2022-11-20T02:28:06;6.60;99.90
13328;DHT22;6733;51.044;3.746;2022-11-20T02:30:33;6.70;99.90
13328;DHT22;6733;51.044;3.746;2022-11-20T02:32:59;6.70;99.90
13328;DHT22;6733;51.044;3.746;2022-11-20T02:37:54;6.70;99.90
13328;DHT22;6733;51.044;3.746;2022-11-20T02:40:20;6.70;99.90
13328;DHT22;6733;51.044;3.746;2022-11-20T02:42:46;6.60;99.90
13328;DHT22;6733;51.044;3.746;2022-11-20T02:45:13;6.70;99.90
13328;DHT22;6733;51.044;3.746;2022-11-20T02:47:39;6.70;99.90
13328;DHT22;6733;51.044;3.746;2022-11-20T02:50:06;6.70;99.90
13328;DHT22;6733;51.044;3.746;2022-11-20T02:52:32;6.70;99.90
13328;DHT22;6733;51.044;3.746;2022-11-20T02:54:58;6.70;99.90
13328;DHT22;6733;51.044;3.746;2022-11-20T02:57:24;6.80;99.90
13328;DHT22;6733;51.044;3.746;2022-11-20T02:59:50;6.80;99.90
13328;DHT22;6733;51.044;3.746;2022-11-20T03:02:16;6.80;99.90
13328;DHT22;6733;51.044;3.746;2022-11-20T03:04:42;6.80;99.90
13328;DHT22;6733;51.044;3.746;2022-11-20T03:07:09;6.80;99.90
13328;DHT22;6733;51.044;3.746;2022-11-20T03:09:36;6.80;99.90
13328;DHT22;6733;51.044;3.746;2022-11-20T03:12:02;6.80;99.90
13328;DHT22;6733;51.044;3.746;2022-11-20T03:14:28;6.80;99.90
13328;DHT22;6733;51.044;3.746;2022-11-20T03:16:55;6.80;99.90
13328;DHT22;6733;51.044;3.746;2022-11-20T03:19:21;6.90;99.90
13328;DHT22;6733;51.044;3.746;2022-11-20T03:21:47;6.90;99.90
13328;DHT22;6733;51.044;3.746;2022-11-20T03:24:14;6.90;99.90
13328;DHT22;6733;51.044;3.746;2022-11-20T03:26:40;6.90;99.90
13328;DHT22;6733;51.044;3.746;2022-11-20T03:29:07;6.90;99.90
13328;DHT22;6733;51.044;3.746;2022-11-20T03:31:39;6.90;99.90
13328;DHT22;6733;51.044;3.746;2022-11-20T03:34:10;6.90;99.90
13328;DHT22;6733;51.044;3.746;2022-11-20T03:36:41;6.90;99.90
13328;DHT22;6733;51.044;3.746;2022-11-20T03:39:08;6.90;99.90
13328;DHT22;6733;51.044;3.746;2022-11-20T03:41:39;7.00;99.90
13328;DHT22;6733;51.044;3.746;2022-11-20T03:44:09;7.00;99.90
13328;DHT22;6733;51.044;3.746;2022-11-20T03:46:36;6.90;99.90
13328;DHT22;6733;51.044;3.746;2022-11-20T03:49:02;7.00;99.90
13328;DHT22;6733;51.044;3.746;2022-11-20T03:51:31;6.90;99.90
13328;DHT22;6733;51.044;3.746;2022-11-20T03:54:04;7.00;99.90
13328;DHT22;6733;51.044;3.746;2022-11-20T03:56:33;7.00;99.90
13328;DHT22;6733;51.044;3.746;2022-11-20T03:59:00;7.00;99.90
13328;DHT22;6733;51.044;3.746;2022-11-20T04:01:28;7.00;99.90
13328;DHT22;6733;51.044;3.746;2022-11-20T04:03:56;7.00;99.90
13328;DHT22;6733;51.044;3.746;2022-11-20T04:06:27;7.00;99.90
13328;DHT22;6733;51.044;3.746;2022-11-20T04:08:55;7.00;99.90
13328;DHT22;6733;51.044;3.746;2022-11-20T04:11:26;7.00;99.90
13328;DHT22;6733;51.044;3.746;2022-11-20T04:13:55;7.00;99.90
13328;DHT22;6733;51.044;3.746;2022-11-20T04:16:23;7.00;99.90
13328;DHT22;6733;51.044;3.746;2022-11-20T04:18:54;7.00;99.90
13328;DHT22;6733;51.044;3.746;2022-11-20T04:21:21;7.00;99.90
13328;DHT22;6733;51.044;3.746;2022-11-20T04:23:47;7.00;99.90
13328;DHT22;6733;51.044;3.746;2022-11-20T04:26:14;7.00;99.90
13328;DHT22;6733;51.044;3.746;2022-11-20T04:28:40;7.10;99.90
13328;DHT22;6733;51.044;3.746;2022-11-20T04:31:09;7.00;99.90
13328;DHT22;6733;51.044;3.746;2022-11-20T04:33:36;7.00;99.90
13328;DHT22;6733;51.044;3.746;2022-11-20T04:36:05;7.10;99.90
13328;DHT22;6733;51.044;3.746;2022-11-20T04:38:32;7.10;99.90
13328;DHT22;6733;51.044;3.746;2022-11-20T04:40:59;7.10;99.90
13328;DHT22;6733;51.044;3.746;2022-11-20T04:43:26;7.10;99.90
13328;DHT22;6733;51.044;3.746;2022-11-20T04:45:57;7.10;99.90
13328;DHT22;6733;51.044;3.746;2022-11-20T04:48:24;7.00;99.90
13328;DHT22;6733;51.044;3.746;2022-11-20T04:50:51;7.00;99.90
13328;DHT22;6733;51.044;3.746;2022-11-20T04:53:18;7.00;99.90
13328;DHT22;6733;51.044;3.746;2022-11-20T04:55:44;6.90;99.90
13328;DHT22;6733;51.044;3.746;2022-11-20T04:58:11;6.90;99.90
13328;DHT22;6733;51.044;3.746;2022-11-20T05:00:38;6.90;99.90
13328;DHT22;6733;51.044;3.746;2022-11-20T05:03:04;6.90;99.90
13328;DHT22;6733;51.044;3.746;2022-11-20T05:05:30;6.90;99.90
13328;DHT22;6733;51.044;3.746;2022-11-20T05:07:58;6.90;99.90
13328;DHT22;6733;51.044;3.746;2022-11-20T05:10:27;6.90;99.90
13328;DHT22;6733;51.044;3.746;2022-11-20T05:12:53;6.90;99.90
13328;DHT22;6733;51.044;3.746;2022-11-20T05:15:20;6.90;99.90
13328;DHT22;6733;51.044;3.746;2022-11-20T05:17:49;7.00;99.90
13328;DHT22;6733;51.044;3.746;2022-11-20T05:20:16;7.00;99.90
13328;DHT22;6733;51.044;3.746;2022-11-20T05:22:43;7.00;99.90
13328;DHT22;6733;51.044;3.746;2022-11-20T05:25:10;7.00;99.90
13328;DHT22;6733;51.044;3.746;2022-11-20T05:27:36;7.10;99.90
13328;DHT22;6733;51.044;3.746;2022-11-20T05:30:04;7.10;99.90
13328;DHT22;6733;51.044;3.746;2022-11-20T05:32:30;7.20;99.90
13328;DHT22;6733;51.044;3.746;2022-11-20T05:34:56;7.20;99.90
13328;DHT22;6733;51.044;3.746;2022-11-20T05:37:23;7.30;99.90
13328;DHT22;6733;51.044;3.746;2022-11-20T05:39:49;7.40;99.90
13328;DHT22;6733;51.044;3.746;2022-11-20T05:42:15;7.40;99.90
13328;DHT22;6733;51.044;3.746;2022-11-20T05:45:04;7.50;99.90
13328;DHT22;6733;51.044;3.746;2022-11-20T05:47:34;7.50;99.90
13328;DHT22;6733;51.044;3.746;2022-11-20T05:50:01;7.50;99.90
13328;DHT22;6733;51.044;3.746;2022-11-20T05:52:30;7.60;99.90
13328;DHT22;6733;51.044;3.746;2022-11-20T05:54:57;7.70;99.90
13328;DHT22;6733;51.044;3.746;2022-11-20T05:57:23;7.70;99.90
13328;DHT22;6733;51.044;3.746;2022-11-20T05:59:49;7.70;99.90
13328;DHT22;6733;51.044;3.746;2022-11-20T06:02:15;7.80;99.90
13328;DHT22;6733;51.044;3.746;2022-11-20T06:04:41;7.70;99.90
13328;DHT22;6733;51.044;3.746;2022-11-20T06:07:07;7.70;99.90
13328;DHT22;6733;51.044;3.746;2022-11-20T06:09:33;7.80;99.90
13328;DHT22;6733;51.044;3.746;2022-11-20T06:12:00;7.80;99.90
13328;DHT22;6733;51.044;3.746;2022-11-20T06:14:26;7.80;99.90
13328;DHT22;6733;51.044;3.746;2022-11-20T06:16:52;7.80;99.90
13328;DHT22;6733;51.044;3.746;2022-11-20T06:19:18;7.80;99.90
13328;DHT22;6733;51.044;3.746;2022-11-20T06:21:44;7.80;99.90
13328;DHT22;6733;51.044;3.746;2022-11-20T06:24:10;7.80;99.90
13328;DHT22;6733;51.044;3.746;2022-11-20T06:26:37;7.80;99.90
13328;DHT22;6733;51.044;3.746;2022-11-20T06:29:04;7.80;99.90
13328;DHT22;6733;51.044;3.746;2022-11-20T06:31:30;7.80;99.90
13328;DHT22;6733;51.044;3.746;2022-11-20T06:34:01;7.80;99.90
13328;DHT22;6733;51.044;3.746;2022-11-20T06:36:27;7.80;99.90
13328;DHT22;6733;51.044;3.746;2022-11-20T06:38:54;7.80;99.90
13328;DHT22;6733;51.044;3.746;2022-11-20T06:41:21;7.90;99.90
13328;DHT22;6733;51.044;3.746;2022-11-20T06:43:47;7.80;99.90
13328;DHT22;6733;51.044;3.746;2022-11-20T06:46:15;7.80;99.90
13328;DHT22;6733;51.044;3.746;2022-11-20T06:48:43;7.90;99.90
13328;DHT22;6733;51.044;3.746;2022-11-20T06:51:09;7.90;99.90
13328;DHT22;6733;51.044;3.746;2022-11-20T06:53:36;7.90;99.90
13328;DHT22;6733;51.044;3.746;2022-11-20T06:56:03;7.80;99.90
13328;DHT22;6733;51.044;3.746;2022-11-20T06:58:31;7.80;99.90
13328;DHT22;6733;51.044;3.746;2022-11-20T07:01:05;7.80;99.90
13328;DHT22;6733;51.044;3.746;2022-11-20T07:03:32;7.80;99.90
13328;DHT22;6733;51.044;3.746;2022-11-20T07:05:58;7.90;99.90
13328;DHT22;6733;51.044;3.746;2022-11-20T07:08:25;7.90;99.90
13328;DHT22;6733;51.044;3.746;2022-11-20T07:10:52;7.80;99.90
13328;DHT22;6733;51.044;3.746;2022-11-20T07:13:18;7.90;99.90
13328;DHT22;6733;51.044;3.746;2022-11-20T07:15:44;7.90;99.90
13328;DHT22;6733;51.044;3.746;2022-11-20T07:18:10;7.90;99.90
13328;DHT22;6733;51.044;3.746;2022-11-20T07:20:37;7.90;99.90
13328;DHT22;6733;51.044;3.746;2022-11-20T07:23:03;7.90;99.90
13328;DHT22;6733;51.044;3.746;2022-11-20T07:25:29;7.90;99.90
13328;DHT22;6733;51.044;3.746;2022-11-20T07:28:00;7.90;99.90
13328;DHT22;6733;51.044;3.746;2022-11-20T07:30:27;7.90;99.90
13328;DHT22;6733;51.044;3.746;2022-11-20T07:32:54;7.90;99.90
13328;DHT22;6733;51.044;3.746;2022-11-20T07:35:22;7.90;99.90
13328;DHT22;6733;51.044;3.746;2022-11-20T07:37:48;7.90;99.90
13328;DHT22;6733;51.044;3.746;2022-11-20T07:40:15;7.90;99.90
13328;DHT22;6733;51.044;3.746;2022-11-20T07:42:54;7.90;99.90
13328;DHT22;6733;51.044;3.746;2022-11-20T07:45:22;7.90;99.90
13328;DHT22;6733;51.044;3.746;2022-11-20T07:47:50;8.00;99.90
13328;DHT22;6733;51.044;3.746;2022-11-20T07:50:16;8.00;99.90
13328;DHT22;6733;51.044;3.746;2022-11-20T07:52:42;8.00;99.90
13328;DHT22;6733;51.044;3.746;2022-11-20T07:55:10;8.00;99.90
13328;DHT22;6733;51.044;3.746;2022-11-20T07:57:36;8.00;99.90
13328;DHT22;6733;51.044;3.746;2022-11-20T08:00:04;8.00;99.90
13328;DHT22;6733;51.044;3.746;2022-11-20T08:02:31;8.10;99.90
13328;DHT22;6733;51.044;3.746;2022-11-20T08:04:57;7.30;99.90
13328;DHT22;6733;51.044;3.746;2022-11-20T08:07:23;6.80;99.90
13328;DHT22;6733;51.044;3.746;2022-11-20T08:09:49;6.80;99.90
13328;DHT22;6733;51.044;3.746;2022-11-20T08:12:19;6.60;99.90
13328;DHT22;6733;51.044;3.746;2022-11-20T08:15:05;6.40;99.90
13328;DHT22;6733;51.044;3.746;2022-11-20T08:17:31;6.40;99.90
13328;DHT22;6733;51.044;3.746;2022-11-20T08:19:58;6.30;99.90
13328;DHT22;6733;51.044;3.746;2022-11-20T08:22:24;6.30;99.90
13328;DHT22;6733;51.044;3.746;2022-11-20T08:24:51;6.30;99.90
13328;DHT22;6733;51.044;3.746;2022-11-20T08:27:17;6.30;99.90
13328;DHT22;6733;51.044;3.746;2022-11-20T08:29:43;6.40;99.90
13328;DHT22;6733;51.044;3.746;2022-11-20T08:32:09;6.20;99.90
13328;DHT22;6733;51.044;3.746;2022-11-20T08:34:35;6.20;99.90
13328;DHT22;6733;51.044;3.746;2022-11-20T08:37:02;6.20;99.90
13328;DHT22;6733;51.044;3.746;2022-11-20T08:39:28;6.20;99.90
13328;DHT22;6733;51.044;3.746;2022-11-20T08:41:54;6.20;99.90
13328;DHT22;6733;51.044;3.746;2022-11-20T08:44:21;6.30;99.90
13328;DHT22;6733;51.044;3.746;2022-11-20T08:46:47;6.30;99.90
13328;DHT22;6733;51.044;3.746;2022-11-20T08:49:14;6.20;99.90
13328;DHT22;6733;51.044;3.746;2022-11-20T08:51:41;6.20;99.90
13328;DHT22;6733;51.044;3.746;2022-11-20T08:54:08;6.20;99.90
13328;DHT22;6733;51.044;3.746;2022-11-20T08:56:35;6.30;99.90
13328;DHT22;6733;51.044;3.746;2022-11-20T08:59:01;6.30;99.90
13328;DHT22;6733;51.044;3.746;2022-11-20T09:01:28;6.30;99.90
13328;DHT22;6733;51.044;3.746;2022-11-20T09:03:55;6.40;99.90
13328;DHT22;6733;51.044;3.746;2022-11-20T09:06:25;6.40;99.90
13328;DHT22;6733;51.044;3.746;2022-11-20T09:08:53;6.40;99.90
13328;DHT22;6733;51.044;3.746;2022-11-20T09:11:19;6.40;99.90
13328;DHT22;6733;51.044;3.746;2022-11-20T09:13:45;6.50;99.90
13328;DHT22;6733;51.044;3.746;2022-11-20T09:16:11;6.50;99.90
13328;DHT22;6733;51.044;3.746;2022-11-20T09:18:38;6.50;99.90
13328;DHT22;6733;51.044;3.746;2022-11-20T09:21:13;6.60;99.90
13328;DHT22;6733;51.044;3.746;2022-11-20T09:23:40;6.60;99.90
13328;DHT22;6733;51.044;3.746;2022-11-20T09:26:09;6.70;99.90
13328;DHT22;6733;51.044;3.746;2022-11-20T09:28:36;6.80;99.90
13328;DHT22;6733;51.044;3.746;2022-11-20T09:31:07;6.80;99.90
13328;DHT22;6733;51.044;3.746;2022-11-20T09:33:33;6.80;99.90
13328;DHT22;6733;51.044;3.746;2022-11-20T09:36:00;6.90;99.90
13328;DHT22;6733;51.044;3.746;2022-11-20T09:38:26;6.90;99.90
13328;DHT22;6733;51.044;3.746;2022-11-20T09:40:57;6.90;99.90
13328;DHT22;6733;51.044;3.746;2022-11-20T09:43:46;7.00;99.90
13328;DHT22;6733;51.044;3.746;2022-11-20T09:46:44;7.10;99.90
13328;DHT22;6733;51.044;3.746;2022-11-20T09:54:41;7.30;99.90
13328;DHT22;6733;51.044;3.746;2022-11-20T09:57:12;7.40;99.90
13328;DHT22;6733;51.044;3.746;2022-11-20T09:59:44;7.40;99.90
13328;DHT22;6733;51.044;3.746;2022-11-20T10:02:29;7.50;99.90
13328;DHT22;6733;51.044;3.746;2022-11-20T10:05:11;7.60;99.90
13328;DHT22;6733;51.044;3.746;2022-11-20T10:07:41;7.70;99.90
13328;DHT22;6733;51.044;3.746;2022-11-20T10:10:16;7.80;99.90
13328;DHT22;6733;51.044;3.746;2022-11-20T10:23:27;8.10;99.90
13328;DHT22;6733;51.044;3.746;2022-11-20T10:26:05;8.10;99.90
13328;DHT22;6733;51.044;3.746;2022-11-20T10:31:36;8.30;99.90
13328;DHT22;6733;51.044;3.746;2022-11-20T10:34:22;8.40;99.90
13328;DHT22;6733;51.044;3.746;2022-11-20T10:36:56;8.50;99.90
13328;DHT22;6733;51.044;3.746;2022-11-20T10:42:37;8.60;99.90
13328;DHT22;6733;51.044;3.746;2022-11-20T10:45:30;8.70;99.90
13328;DHT22;6733;51.044;3.746;2022-11-20T10:48:22;8.70;99.90
13328;DHT22;6733;51.044;3.746;2022-11-20T10:50:58;8.80;99.90
13328;DHT22;6733;51.044;3.746;2022-11-20T10:56:53;9.00;99.90
13328;DHT22;6733;51.044;3.746;2022-11-20T11:01:52;9.10;99.90
13328;DHT22;6733;51.044;3.746;2022-11-20T11:04:33;8.90;99.90
13328;DHT22;6733;51.044;3.746;2022-11-20T11:07:15;9.10;99.90
13328;DHT22;6733;51.044;3.746;2022-11-20T11:09:52;9.10;99.90
13328;DHT22;6733;51.044;3.746;2022-11-20T11:12:19;9.10;99.90
13328;DHT22;6733;51.044;3.746;2022-11-20T11:14:52;9.20;99.90
13328;DHT22;6733;51.044;3.746;2022-11-20T11:17:45;9.20;99.90
13328;DHT22;6733;51.044;3.746;2022-11-20T11:20:16;9.20;99.90
13328;DHT22;6733;51.044;3.746;2022-11-20T11:22:48;9.10;99.90
13328;DHT22;6733;51.044;3.746;2022-11-20T11:25:22;9.10;99.90
13328;DHT22;6733;51.044;3.746;2022-11-20T11:27:50;9.10;99.90
13328;DHT22;6733;51.044;3.746;2022-11-20T11:30:19;9.10;99.90
13328;DHT22;6733;51.044;3.746;2022-11-20T11:32:45;9.10;99.90
13328;DHT22;6733;51.044;3.746;2022-11-20T11:35:27;9.10;99.90
13328;DHT22;6733;51.044;3.746;2022-11-20T11:38:06;9.00;99.90
13328;DHT22;6733;51.044;3.746;2022-11-20T11:40:37;9.10;99.90
13328;DHT22;6733;51.044;3.746;2022-11-20T11:43:26;9.00;99.90
13328;DHT22;6733;51.044;3.746;2022-11-20T11:46:33;8.90;99.90
13328;DHT22;6733;51.044;3.746;2022-11-20T11:54:38;8.60;99.90
13328;DHT22;6733;51.044;3.746;2022-11-20T12:00:10;8.40;99.90
13328;DHT22;6733;51.044;3.746;2022-11-20T12:05:45;8.60;99.90
13328;DHT22;6733;51.044;3.746;2022-11-20T12:11:04;8.40;99.90
13328;DHT22;6733;51.044;3.746;2022-11-20T12:13:42;8.30;99.90
13328;DHT22;6733;51.044;3.746;2022-11-20T12:16:13;8.30;99.90
13328;DHT22;6733;51.044;3.746;2022-11-20T12:18:41;8.40;99.90
13328;DHT22;6733;51.044;3.746;2022-11-20T12:21:18;8.30;99.90
13328;DHT22;6733;51.044;3.746;2022-11-20T12:38:15;7.90;99.90
13328;DHT22;6733;51.044;3.746;2022-11-20T12:41:00;8.00;99.90
13328;DHT22;6733;51.044;3.746;2022-11-20T12:44:39;8.00;99.90
13328;DHT22;6733;51.044;3.746;2022-11-20T12:47:15;8.00;99.90
13328;DHT22;6733;51.044;3.746;2022-11-20T12:52:56;8.10;99.90
13328;DHT22;6733;51.044;3.746;2022-11-20T12:55:36;8.10;99.90
13328;DHT22;6733;51.044;3.746;2022-11-20T12:58:18;8.00;99.90
13328;DHT22;6733;51.044;3.746;2022-11-20T13:01:19;8.00;99.90
13328;DHT22;6733;51.044;3.746;2022-11-20T13:04:47;8.00;99.90
13328;DHT22;6733;51.044;3.746;2022-11-20T13:07:16;8.10;99.90
13328;DHT22;6733;51.044;3.746;2022-11-20T13:09:47;8.10;99.90
13328;DHT22;6733;51.044;3.746;2022-11-20T13:12:24;8.10;99.90
13328;DHT22;6733;51.044;3.746;2022-11-20T13:15:11;8.10;99.90
13328;DHT22;6733;51.044;3.746;2022-11-20T13:17:47;8.20;99.90
13328;DHT22;6733;51.044;3.746;2022-11-20T13:20:18;8.20;99.90
13328;DHT22;6733;51.044;3.746;2022-11-20T13:22:49;8.20;99.90
13328;DHT22;6733;51.044;3.746;2022-11-20T13:25:26;8.20;99.90
13328;DHT22;6733;51.044;3.746;2022-11-20T13:27:54;8.30;99.90
13328;DHT22;6733;51.044;3.746;2022-11-20T13:30:23;8.30;99.90
13328;DHT22;6733;51.044;3.746;2022-11-20T13:35:28;8.30;99.90
13328;DHT22;6733;51.044;3.746;2022-11-20T13:38:12;8.30;99.90
13328;DHT22;6733;51.044;3.746;2022-11-20T13:41:00;8.40;99.90
13328;DHT22;6733;51.044;3.746;2022-11-20T13:43:49;8.40;99.90
13328;DHT22;6733;51.044;3.746;2022-11-20T13:46:15;8.40;99.90
13328;DHT22;6733;51.044;3.746;2022-11-20T13:48:42;8.40;99.90
13328;DHT22;6733;51.044;3.746;2022-11-20T13:51:41;8.40;99.90
13328;DHT22;6733;51.044;3.746;2022-11-20T14:02:37;8.50;99.90
13328;DHT22;6733;51.044;3.746;2022-11-20T14:05:04;8.50;99.90
13328;DHT22;6733;51.044;3.746;2022-11-20T14:07:41;8.50;99.90
13328;DHT22;6733;51.044;3.746;2022-11-20T14:12:40;8.60;99.90
13328;DHT22;6733;51.044;3.746;2022-11-20T14:15:33;8.60;99.90
13328;DHT22;6733;51.044;3.746;2022-11-20T14:18:11;8.70;99.90
13328;DHT22;6733;51.044;3.746;2022-11-20T14:20:38;8.70;99.90
13328;DHT22;6733;51.044;3.746;2022-11-20T14:23:04;8.80;99.90
13328;DHT22;6733;51.044;3.746;2022-11-20T14:25:31;8.80;99.90
13328;DHT22;6733;51.044;3.746;2022-11-20T14:27:59;8.90;99.90
13328;DHT22;6733;51.044;3.746;2022-11-20T14:30:47;8.90;99.90
13328;DHT22;6733;51.044;3.746;2022-11-20T14:33:14;9.00;99.90
13328;DHT22;6733;51.044;3.746;2022-11-20T14:35:48;9.10;99.90
13328;DHT22;6733;51.044;3.746;2022-11-20T14:38:17;9.20;99.90
13328;DHT22;6733;51.044;3.746;2022-11-20T14:40:44;9.40;99.90
13328;DHT22;6733;51.044;3.746;2022-11-20T14:43:26;9.40;99.90
13328;DHT22;6733;51.044;3.746;2022-11-20T14:48:31;10.20;99.90
13328;DHT22;6733;51.044;3.746;2022-11-20T14:50:58;11.00;99.90
13328;DHT22;6733;51.044;3.746;2022-11-20T14:53:25;11.80;99.90
13328;DHT22;6733;51.044;3.746;2022-11-20T14:55:56;11.70;99.90
13328;DHT22;6733;51.044;3.746;2022-11-20T14:58:25;10.90;99.90
13328;DHT22;6733;51.044;3.746;2022-11-20T15:00:58;10.30;99.90
13328;DHT22;6733;51.044;3.746;2022-11-20T15:03:35;10.00;99.90
13328;DHT22;6733;51.044;3.746;2022-11-20T15:06:02;9.90;99.90
13328;DHT22;6733;51.044;3.746;2022-11-20T15:08:29;9.80;99.90
13328;DHT22;6733;51.044;3.746;2022-11-20T15:10:56;9.80;99.90
13328;DHT22;6733;51.044;3.746;2022-11-20T15:13:34;9.70;99.90
13328;DHT22;6733;51.044;3.746;2022-11-20T15:16:02;9.80;99.90
13328;DHT22;6733;51.044;3.746;2022-11-20T15:18:33;9.80;99.90
13328;DHT22;6733;51.044;3.746;2022-11-20T15:21:04;9.80;99.90
13328;DHT22;6733;51.044;3.746;2022-11-20T15:23:34;9.80;99.90
13328;DHT22;6733;51.044;3.746;2022-11-20T15:26:00;9.80;99.90
13328;DHT22;6733;51.044;3.746;2022-11-20T15:28:31;9.70;99.90
13328;DHT22;6733;51.044;3.746;2022-11-20T15:31:00;9.70;99.90
13328;DHT22;6733;51.044;3.746;2022-11-20T15:33:28;9.60;99.90
13328;DHT22;6733;51.044;3.746;2022-11-20T15:35:54;9.50;99.90
13328;DHT22;6733;51.044;3.746;2022-11-20T15:38:20;9.50;99.90
13328;DHT22;6733;51.044;3.746;2022-11-20T15:40:50;9.50;99.90
13328;DHT22;6733;51.044;3.746;2022-11-20T15:43:16;9.50;99.90
13328;DHT22;6733;51.044;3.746;2022-11-20T15:45:49;9.40;99.90
13328;DHT22;6733;51.044;3.746;2022-11-20T15:48:23;9.40;99.90
13328;DHT22;6733;51.044;3.746;2022-11-20T15:53:39;9.30;99.90
13328;DHT22;6733;51.044;3.746;2022-11-20T15:56:13;9.20;99.90
13328;DHT22;6733;51.044;3.746;2022-11-20T15:58:40;9.20;99.90
13328;DHT22;6733;51.044;3.746;2022-11-20T16:01:18;9.20;99.90
13328;DHT22;6733;51.044;3.746;2022-11-20T16:03:45;9.20;99.90
13328;DHT22;6733;51.044;3.746;2022-11-20T16:06:11;9.20;99.90
13328;DHT22;6733;51.044;3.746;2022-11-20T16:08:37;9.20;99.90
13328;DHT22;6733;51.044;3.746;2022-11-20T16:11:04;9.30;99.90
13328;DHT22;6733;51.044;3.746;2022-11-20T16:13:32;9.30;99.90
13328;DHT22;6733;51.044;3.746;2022-11-20T16:16:21;9.30;99.90
13328;DHT22;6733;51.044;3.746;2022-11-20T16:18:49;9.30;99.90
13328;DHT22;6733;51.044;3.746;2022-11-20T16:21:15;9.20;99.90
13328;DHT22;6733;51.044;3.746;2022-11-20T16:23:42;9.40;99.90
13328;DHT22;6733;51.044;3.746;2022-11-20T16:26:13;9.50;99.90
13328;DHT22;6733;51.044;3.746;2022-11-20T16:28:40;9.50;99.90
13328;DHT22;6733;51.044;3.746;2022-11-20T16:31:14;9.50;99.90
13328;DHT22;6733;51.044;3.746;2022-11-20T16:33:41;9.50;99.90
13328;DHT22;6733;51.044;3.746;2022-11-20T16:36:12;9.50;99.90
13328;DHT22;6733;51.044;3.746;2022-11-20T16:38:38;9.40;99.90
13328;DHT22;6733;51.044;3.746;2022-11-20T16:41:05;9.40;99.90
13328;DHT22;6733;51.044;3.746;2022-11-20T16:43:32;9.30;99.90
13328;DHT22;6733;51.044;3.746;2022-11-20T16:45:58;9.30;99.90
13328;DHT22;6733;51.044;3.746;2022-11-20T16:48:24;9.30;99.90
13328;DHT22;6733;51.044;3.746;2022-11-20T16:50:52;9.30;99.90
13328;DHT22;6733;51.044;3.746;2022-11-20T17:00:49;9.40;99.90
13328;DHT22;6733;51.044;3.746;2022-11-20T17:03:15;9.30;99.90
13328;DHT22;6733;51.044;3.746;2022-11-20T17:05:42;9.40;99.90
13328;DHT22;6733;51.044;3.746;2022-11-20T17:08:10;9.50;99.90
13328;DHT22;6733;51.044;3.746;2022-11-20T17:10:37;9.50;99.90
13328;DHT22;6733;51.044;3.746;2022-11-20T17:13:03;9.50;99.90
13328;DHT22;6733;51.044;3.746;2022-11-20T17:15:30;9.50;99.90
13328;DHT22;6733;51.044;3.746;2022-11-20T17:18:27;9.50;99.90
13328;DHT22;6733;51.044;3.746;2022-11-20T17:21:21;9.30;99.90
13328;DHT22;6733;51.044;3.746;2022-11-20T17:23:48;9.20;99.90
13328;DHT22;6733;51.044;3.746;2022-11-20T17:26:20;9.20;99.90
13328;DHT22;6733;51.044;3.746;2022-11-20T17:28:53;9.20;99.90
13328;DHT22;6733;51.044;3.746;2022-11-20T17:31:19;9.30;99.90
13328;DHT22;6733;51.044;3.746;2022-11-20T17:33:46;9.30;99.90
13328;DHT22;6733;51.044;3.746;2022-11-20T17:36:15;9.20;99.90
13328;DHT22;6733;51.044;3.746;2022-11-20T17:38:42;9.20;99.90
13328;DHT22;6733;51.044;3.746;2022-11-20T17:41:11;9.10;99.90
13328;DHT22;6733;51.044;3.746;2022-11-20T17:43:38;9.00;99.90
13328;DHT22;6733;51.044;3.746;2022-11-20T17:46:23;9.00;99.90
13328;DHT22;6733;51.044;3.746;2022-11-20T17:48:49;9.10;99.90
13328;DHT22;6733;51.044;3.746;2022-11-20T17:51:21;9.10;99.90